Terminal Aerodrome Forecast
Issued by NWS Memphis, TN

Home | Current Version | Previous Version | Text Only | Print | Product List | Glossary On
Versions: 1 2 3 4 5 6 7 8 9 10 11 12 13 14 15 16 17 18 19 20 21 22
000
FTUS44 KMEG 050903 AAB
TAFMKL
TAF AMD
KMKL 050903Z 0509/0606 01018G28KT 2SM -SN BR OVC007
      TEMPO 0509/0513 1/2SM SN OVC003
     FM051300 01017G27KT 4SM -SN BR OVC007
     FM051600 01012G20KT P6SM -SN OVC012
     FM052000 36012KT P6SM OVC050
     FM060200 02005KT P6SM OVC250=

USA.gov is the U.S. government's official web portal to all federal, state and local government web resources and services.